Decoded Metar for LFPG (PARIS CHARLES DE GAULLE in FRANCE) (IATA:CDG) | Meteo·Mobile Aviation Weather
aviador You're here:

LFPG Decoded Metar

PARIS CHARLES DE GAULLE in FRANCE
Report Time2020-01-29 13:30:00
UTC Time2020-01-29 13:57:30
Flight Rules mvfr MVFR
Wind250° at 14 kt
W.Decomp.*RWY 26: 13.8 kt HW 2.2 kt LCW
RWY 27: 13.2 kt HW 4.6 kt LCW
Visibility9999 m
Phenomena:N/A
Clouds:Broken 028 Hf
Expected CloudBase > 2,000 ft AGL from Temp-Dew spread
Ceiling2,800 ft
Temp09°C (ISA -5)
Dew Point04°C (71% RH)
AAT2.6°C
QNH1015 hPa
Density Alt-230 ft
Elevation358 ft
Report Wrong Elevation
Raw Report
LFPG 291330Z 25014KT 9999 BKN028 09/04 Q1015 NOSIG=

Extra information for LFPG:More info

Metar Taf Metar & Taf Last 4 Metars F.Rules Stats Wind Profile Meteogram Temp Stats Airport Information Weather charts Add Link Nearby VenuesMetar ALERT Operation Metar Decoded Social comments